Aeroporto :
LOGIN :

Iscrizione | Disclaimer

   EN    FR    IT 

 










Sommario :    VFR   VFR Marginale   IFR   IFR Intensivo   IFR Molto Intensivo
Visibilità : 
Base nubi : 
>= 8 km
>= 3000ft
5 / 8 km
1000 / 3000 ft
1500m / 5 km
500 / 1000 ft
800 / 1500m
200 / 500 ft
< 800m
< 200 ft
Simboli :   Temporali  Nebbia  Neve Forte  Precipitazioni Forti  Vento > 20 kt
SIGMETs :   Varie  Temporali  Ghiacco  Turbolenza  Onda orograficha  Ceneri Vulcaniche







- Altitudine del aeroporto : 386 ft
- Codice IATA : QOE


ETNN - Nörvenich Airforce Base

ULTIMO METAR :
  • 121345Z 28013KT 9999 BKN012 BKN060 03/00 Q1009 GRN BLU TEMPO YLO

METARs OBSOLETI :
  • 121320Z 29013KT 9999 SCT012 BKN020 BKN040 03/01 Q1009 WHT BLU TEMPO YLO
  • 121220Z 29012KT 9999 -SHRA SCT012 BKN022 03/01 Q1008 WHT BLU TEMPO YLO
  • 121120Z 28012KT 9999 SCT010 BKN018 04/01 Q1008 WHT BLU TEMPO YLO

TAF TAF ETNN
Valido dal 12 a 12 ore il 12 a 21 ore UTC


121100Z 1212/1221 25012KT 9999 NSW SCT010 BKN025 BKN045
TEMPO 1212/1218 28015G25KT 3000 SHRASN SCT005 BKN007CB
PROB30 1212/1216 31018G28KT 1000 TSSNGS BKN004 BKN007CB BY ETGL
Nessun NOTAM noto per questo aeroporto.



MetMap, La meteo Aeronautica in un colpo d'occhio ! - Copyright ORBIFLY Dicembre 2007 - Disclaimer

ORBIFLY MET'MAP TEAM :

Programmazione e sviluppo : Alexandra Zaïnal
Concezione e sviluppo : Baudouin d'Aumeries
Co-Programmazione e sviluppo : Marc-Olivier Méhu
Supporto tecnico e logistico : Manuel Goepfert
Aiuto per la traduzione : Arnaldo La Scala

Contatto : metmap@orbifly.com




FONTI E CREDITI :

   NOAA